Creech Saint Michael, United Kingdom
Current Conditions -  °F | °C
As of 12:50 PM on Thursday 30 Oct 2014 (Local Time) from EGDY Reporting Station
Haze Haze  
Wind Chill: 64°   Ceiling: 1800
Heat Index: 64°   Visibility: 5mi
Dew Point: 59°   Wind: 6mph
Humidity: 83%   Direction: 180°S
Pressure: 30.03"   Gusts: NA
Location:  51.02°N, 3.04°W
Report Text: EGDY 301250Z 18005KT 8000 HZ FEW009 SCT012 BKN018 18/15 Q1017 GRN TEMPO 9999 NSW FEW018 BLU
Loading
Personal Weather Stations






























Interactive Weather Map
Tropical Storm Tracking
New forecast layout! Learn more

10-Day Weather Forecast

Advertisements
Track Severe Weather on mobile